Time;durP1;ratioP1;P1;durP2;ratioP2;P2;SDS_P1;SDS_P2;PMS_P1;PMS_P2;Temp;Humidity;BMP_temperature;BMP_pressure;BME280_temperature;BME280_humidity;BME280_pressure;Samples;Min_cycle;Max_cycle;Signal;HPM_P1;HPM_P2
2022/07/21 00:02:00;;;;;;;26.15;20.02;;;;;;;29.50;39.68;101232.22;4990187;28;20525;-81
2022/07/21 00:04:27;;;;;;;23.45;19.27;;;;;;;29.39;39.37;101213.97;4991371;28;20144;-81
2022/07/21 00:06:54;;;;;;;22.17;19.80;;;;;;;29.47;39.64;101232.75;4992419;28;20057;-81
2022/07/21 00:09:20;;;;;;;25.92;19.58;;;;;;;29.56;39.57;101250.38;4990283;28;20139;-81
2022/07/21 00:11:47;;;;;;;26.05;19.17;;;;;;;29.57;39.67;101254.78;4989646;28;20050;-81
2022/07/21 00:14:14;;;;;;;26.27;19.98;;;;;;;28.86;39.64;101138.66;4990370;28;20108;-80
2022/07/21 00:16:42;;;;;;;24.00;20.67;;;;;;;29.57;39.66;101248.50;4990029;28;20487;-82
2022/07/21 00:19:09;;;;;;;21.75;17.58;;;;;;;29.51;39.97;101254.94;4990030;28;20049;-81
2022/07/21 00:21:37;;;;;;;27.85;18.08;;;;;;;29.14;39.92;101174.19;4989886;28;20054;-83
2022/07/21 00:24:04;;;;;;;23.70;19.45;;;;;;;28.39;39.71;101063.19;4990112;28;20449;-82
2022/07/21 00:26:31;;;;;;;22.75;19.30;;;;;;;29.00;39.95;101183.72;4989739;28;20046;-81
2022/07/21 00:28:57;;;;;;;22.67;19.85;;;;;;;29.26;39.96;101228.81;4989845;28;20492;-80
2022/07/21 00:31:24;;;;;;;23.40;18.58;;;;;;;29.28;40.31;101244.97;5007478;28;20046;-81
2022/07/21 00:33:51;;;;;;;28.05;20.85;;;;;;;29.24;40.09;101230.94;4990340;28;20533;-81
2022/07/21 00:36:20;;;;;;;26.55;20.20;;;;;;;29.27;40.04;101240.56;4990007;28;20046;-81
2022/07/21 00:38:47;;;;;;;22.85;19.05;;;;;;;29.27;40.13;101251.50;4989846;28;20049;-81
2022/07/21 00:41:14;;;;;;;25.88;19.77;;;;;;;29.20;40.27;101216.09;4990296;28;20078;-80
2022/07/21 00:43:40;;;;;;;24.45;18.77;;;;;;;29.36;39.96;101230.88;4989942;28;20078;-81
2022/07/21 00:46:07;;;;;;;26.73;21.23;;;;;;;29.43;40.10;101231.56;4990036;28;20050;-80
2022/07/21 00:48:34;;;;;;;23.42;19.60;;;;;;;28.79;40.39;101141.56;4990035;28;20108;-80
2022/07/21 00:51:01;;;;;;;25.42;20.67;;;;;;;29.17;40.54;101217.41;4990192;28;20057;-81
2022/07/21 00:53:27;;;;;;;23.15;19.50;;;;;;;29.12;40.39;101206.41;4997648;28;20053;-80
2022/07/21 00:55:54;;;;;;;29.75;18.65;;;;;;;28.79;40.63;101148.91;5027258;28;20057;-80
2022/07/21 00:58:23;;;;;;;25.60;17.63;;;;;;;28.88;40.39;101172.03;5009628;28;20050;-80
2022/07/21 01:00:49;;;;;;;24.27;18.13;;;;;;;28.80;40.84;101153.31;5026969;28;20056;-80
2022/07/21 01:03:16;;;;;;;20.45;17.35;;;;;;;28.77;40.77;101163.66;5009190;28;20080;-80
2022/07/21 01:05:43;;;;;;;18.42;16.45;;;;;;;29.09;40.87;101231.50;5009280;28;20061;-80
2022/07/21 01:08:10;;;;;;;20.90;18.02;;;;;;;28.18;41.31;101088.41;5027437;28;20194;-81
2022/07/21 01:10:37;;;;;;;24.23;18.23;;;;;;;28.25;41.42;101111.78;5027137;28;20049;-81
2022/07/21 01:13:03;;;;;;;19.15;17.08;;;;;;;28.64;41.12;101152.16;5010233;28;20065;-81
2022/07/21 01:15:30;;;;;;;19.75;16.95;;;;;;;28.85;40.97;101187.00;5010931;28;20313;-81
2022/07/21 01:17:59;;;;;;;24.27;18.27;;;;;;;28.99;41.34;101223.06;5014958;28;20440;-80
2022/07/21 01:20:26;;;;;;;22.10;16.15;;;;;;;28.97;41.39;101225.22;5014563;28;20045;-82
2022/07/21 01:22:56;;;;;;;25.55;16.55;;;;;;;28.80;41.53;101206.03;5032845;28;20076;-81
2022/07/21 01:25:22;;;;;;;25.08;16.73;;;;;;;28.90;41.59;101232.72;5017118;28;20359;-81
2022/07/21 01:27:50;;;;;;;23.50;17.23;;;;;;;28.90;41.38;101232.72;5031043;28;20059;-81
2022/07/21 01:30:17;;;;;;;24.75;16.48;;;;;;;28.41;41.55;101159.34;4992474;28;20054;-81
2022/07/21 01:32:44;;;;;;;19.02;16.75;;;;;;;28.90;41.52;101230.00;4991230;28;20332;-81
2022/07/21 01:35:13;;;;;;;21.17;17.45;;;;;;;28.71;40.96;101174.72;4991122;28;20500;-81
2022/07/21 01:37:46;;;;;;;20.38;17.73;;;;;;;29.06;40.40;101201.94;4989875;28;20391;-81
2022/07/21 01:43:00;;;;;;;24.30;16.27;;;;;;;28.91;41.35;101196.13;5010501;28;20054;-81
2022/07/21 01:45:27;;;;;;;20.98;17.83;;;;;;;28.80;41.34;101197.84;4993162;28;20498;-82
2022/07/21 01:47:53;;;;;;;21.38;17.98;;;;;;;28.94;41.65;101222.97;4993222;28;20054;-80
2022/07/21 01:50:26;;;;;;;19.98;16.35;;;;;;;28.97;41.47;101209.66;5010362;28;20052;-80
2022/07/21 01:52:54;;;;;;;23.17;18.15;;;;;;;28.74;41.44;101180.53;5013462;28;20068;-80
2022/07/21 01:55:22;;;;;;;26.33;17.27;;;;;;;28.92;41.56;101219.66;5012740;28;20050;-81
2022/07/21 01:57:49;;;;;;;20.95;16.48;;;;;;;28.96;41.28;101210.72;5012691;28;20049;-81
2022/07/21 02:00:16;;;;;;;23.20;17.70;;;;;;;28.50;41.25;101141.53;5012681;28;20045;-81
2022/07/21 02:02:43;;;;;;;19.25;16.02;;;;;;;28.89;41.68;101210.03;5014367;28;20394;-81
2022/07/21 02:05:10;;;;;;;21.40;16.05;;;;;;;28.44;41.91;101153.38;5016983;28;20045;-81
2022/07/21 02:07:36;;;;;;;19.58;17.58;;;;;;;28.69;42.13;101194.09;5028207;28;20394;-81
2022/07/21 02:10:03;;;;;;;20.65;16.35;;;;;;;28.30;41.83;101130.16;5012762;28;20073;-80
2022/07/21 02:12:30;;;;;;;18.60;16.23;;;;;;;28.78;41.73;101213.66;5012537;28;20068;-80
2022/07/21 02:14:57;;;;;;;22.80;14.98;;;;;;;28.69;41.98;101205.03;5012318;28;20069;-81
2022/07/21 02:17:23;;;;;;;21.13;16.23;;;;;;;28.71;41.65;101215.69;5029554;28;20108;-80
2022/07/21 02:19:50;;;;;;;19.17;16.73;;;;;;;28.39;42.08;101190.69;5011941;28;20053;-81
2022/07/21 02:22:16;;;;;;;18.85;16.02;;;;;;;27.99;41.88;101125.94;5012120;28;20505;-81
2022/07/21 02:24:43;;;;;;;20.88;18.10;;;;;;;28.53;41.84;101211.22;5029834;28;20578;-81
2022/07/21 02:27:10;;;;;;;24.83;17.58;;;;;;;28.56;41.93;101216.19;5029311;28;20050;-81
2022/07/21 02:29:36;;;;;;;22.40;17.92;;;;;;;28.44;42.16;101205.28;4997182;28;20505;-81
2022/07/21 02:32:03;;;;;;;20.77;16.23;;;;;;;28.45;42.40;101222.47;4988872;28;20050;-81
2022/07/21 02:34:30;;;;;;;18.75;15.75;;;;;;;28.33;42.67;101228.81;4972554;28;20174;-81
2022/07/21 02:36:56;;;;;;;18.95;16.75;;;;;;;28.38;42.71;101219.06;4972978;28;20050;-81
2022/07/21 02:39:23;;;;;;;21.88;16.25;;;;;;;27.42;42.66;101086.47;4978241;28;20301;-81
2022/07/21 02:41:50;;;;;;;20.05;17.13;;;;;;;28.13;43.31;101217.41;4992263;28;20523;-80
2022/07/21 02:44:17;;;;;;;18.75;15.18;;;;;;;27.97;42.89;101179.97;4992252;28;20093;-81
2022/07/21 02:46:43;;;;;;;23.17;17.00;;;;;;;28.21;43.10;101224.44;4992127;28;20337;-81
2022/07/21 02:49:10;;;;;;;18.67;16.75;;;;;;;28.04;43.44;101213.41;4992029;28;20049;-80
2022/07/21 02:51:37;;;;;;;24.60;17.20;;;;;;;27.83;43.76;101191.09;4992192;28;20052;-81
2022/07/21 02:54:04;;;;;;;21.70;17.60;;;;;;;27.51;44.00;101157.84;5004711;28;20101;-81
2022/07/21 02:56:30;;;;;;;18.25;16.17;;;;;;;27.68;44.00;101188.81;5029552;28;20049;-80
2022/07/21 02:58:57;;;;;;;23.88;15.13;;;;;;;27.94;43.28;101208.56;5029422;28;20065;-79
2022/07/21 03:01:24;;;;;;;21.65;15.43;;;;;;;28.04;43.41;101218.88;5011217;28;20103;-80
2022/07/21 03:03:51;;;;;;;18.67;14.93;;;;;;;28.00;43.04;101218.50;5011602;28;20045;-80
2022/07/21 03:06:18;;;;;;;20.88;15.48;;;;;;;27.86;43.12;101215.16;5011701;28;20519;-81
2022/07/21 03:08:45;;;;;;;18.70;16.65;;;;;;;27.85;43.57;101216.25;5011527;28;20445;-80
2022/07/21 03:11:12;;;;;;;20.48;15.65;;;;;;;27.82;43.54;101196.78;5011571;28;20041;-81
2022/07/21 03:13:38;;;;;;;17.33;15.60;;;;;;;27.39;43.44;101119.66;5011809;28;20123;-81
2022/07/21 03:16:05;;;;;;;17.40;15.52;;;;;;;27.86;43.64;101217.91;5010851;28;20060;-80
2022/07/21 03:18:32;;;;;;;19.77;17.15;;;;;;;27.76;44.08;101212.16;5011204;28;20050;-79
2022/07/21 03:20:59;;;;;;;24.13;16.33;;;;;;;27.56;43.46;101178.97;5010992;28;20542;-79
2022/07/21 03:23:25;;;;;;;19.42;14.98;;;;;;;27.81;44.01;101225.94;5011126;28;20130;-81
2022/07/21 03:25:52;;;;;;;22.95;15.93;;;;;;;27.59;44.18;101208.47;5011100;28;20390;-80
2022/07/21 03:28:19;;;;;;;18.90;15.82;;;;;;;27.62;44.39;101222.50;5027368;28;20543;-81
2022/07/21 03:30:45;;;;;;;18.55;15.63;;;;;;;27.30;44.45;101175.59;4991631;28;20053;-80
2022/07/21 03:33:12;;;;;;;20.83;16.63;;;;;;;27.59;44.35;101227.56;5008986;28;20481;-80
2022/07/21 03:35:39;;;;;;;19.38;17.38;;;;;;;27.56;44.62;101233.50;5008913;28;20108;-80
2022/07/21 03:38:06;;;;;;;20.40;16.48;;;;;;;27.38;44.82;101204.41;4991277;28;20541;-80
2022/07/21 03:40:35;;;;;;;21.17;15.93;;;;;;;26.40;44.98;101051.97;5008940;28;20513;-80
2022/07/21 03:43:04;;;;;;;17.00;15.20;;;;;;;27.44;45.00;101219.84;4991901;28;20057;-79
2022/07/21 03:45:32;;;;;;;16.70;15.00;;;;;;;27.38;44.95;101215.31;4991508;28;20137;-80
2022/07/21 03:48:00;;;;;;;24.98;17.17;;;;;;;27.48;44.99;101231.94;4989964;28;20056;-80
2022/07/21 03:50:28;;;;;;;17.10;15.10;;;;;;;27.42;45.24;101211.06;4990792;28;20042;-80
2022/07/21 03:52:55;;;;;;;18.10;15.50;;;;;;;27.30;45.43;101196.56;4994189;28;20410;-81
2022/07/21 03:55:22;;;;;;;24.40;18.48;;;;;;;27.49;45.13;101234.41;5027911;28;20041;-81
2022/07/21 03:57:52;;;;;;;26.17;16.92;;;;;;;27.50;45.19;101235.25;5010474;28;20045;-81
2022/07/21 04:00:23;;;;;;;24.40;18.27;;;;;;;27.36;45.02;101212.81;5011950;28;20060;-80
2022/07/21 04:02:50;;;;;;;21.50;16.13;;;;;;;27.64;44.95;101233.16;5013346;28;20517;-81
2022/07/21 04:05:18;;;;;;;22.42;16.88;;;;;;;26.80;44.78;101107.78;5012814;28;20114;-81
2022/07/21 04:07:47;;;;;;;20.85;18.48;;;;;;;27.19;45.44;101190.03;5010460;28;20045;-82
2022/07/21 04:10:16;;;;;;;24.50;19.38;;;;;;;27.07;45.36;101182.59;5010483;28;20489;-81
2022/07/21 04:12:43;;;;;;;23.20;18.38;;;;;;;27.30;45.80;101242.91;5010203;28;20385;-81
2022/07/21 04:15:10;;;;;;;23.45;18.42;;;;;;;26.34;45.64;101101.06;5010143;28;20504;-80
2022/07/21 04:17:38;;;;;;;18.08;16.15;;;;;;;27.25;45.83;101244.41;5010194;28;20060;-80
2022/07/21 04:20:07;;;;;;;21.27;17.85;;;;;;;27.20;45.93;101251.63;5009914;28;20060;-82
2022/07/21 04:22:34;;;;;;;23.30;18.48;;;;;;;27.36;45.56;101247.44;5009654;28;20400;-81
2022/07/21 04:25:00;;;;;;;22.90;17.52;;;;;;;27.35;45.67;101226.69;5027486;28;20108;-80
2022/07/21 04:27:28;;;;;;;23.02;17.45;;;;;;;27.31;45.16;101188.16;5010165;28;20053;-80
2022/07/21 04:29:54;;;;;;;26.63;18.88;;;;;;;27.35;45.29;101211.16;5009698;28;20108;-80
2022/07/21 04:32:21;;;;;;;22.55;17.20;;;;;;;27.32;45.74;101227.16;5009765;28;20144;-79
2022/07/21 04:34:48;;;;;;;26.48;18.23;;;;;;;27.12;45.67;101192.00;5009232;28;20429;-80
2022/07/21 04:37:15;;;;;;;21.45;16.50;;;;;;;27.07;45.97;101214.47;5009840;28;20077;-80
2022/07/21 04:39:41;;;;;;;24.27;16.85;;;;;;;26.36;46.03;101120.69;5001423;28;20121;-79
2022/07/21 04:42:08;;;;;;;32.00;19.05;;;;;;;26.46;46.35;101139.19;4989701;28;20120;-80
2022/07/21 04:44:34;;;;;;;21.35;18.48;;;;;;;26.40;46.14;101127.34;4989932;28;20544;-78
2022/07/21 04:47:01;;;;;;;22.83;15.95;;;;;;;27.13;46.81;101261.78;5006937;28;20132;-79
2022/07/21 04:49:28;;;;;;;21.95;17.85;;;;;;;27.07;47.01;101258.91;4987901;28;20076;-78
2022/07/21 04:51:55;;;;;;;20.15;16.52;;;;;;;26.83;46.01;101180.88;4988720;28;20151;-81
2022/07/21 04:54:29;;;;;;;21.63;17.63;;;;;;;26.86;45.87;101191.28;5022537;28;20124;-80
2022/07/21 04:56:56;;;;;;;17.92;16.17;;;;;;;27.35;46.33;101257.50;5026243;28;20052;-81
2022/07/21 04:59:23;;;;;;;23.55;17.65;;;;;;;26.71;47.09;101161.75;5007671;28;20110;-78
2022/07/21 05:01:50;;;;;;;26.83;17.38;;;;;;;27.23;47.12;101254.72;4987187;28;20054;-79
2022/07/21 05:04:17;;;;;;;21.33;17.85;;;;;;;26.75;47.04;101181.16;4986316;28;20112;-79
2022/07/21 05:06:43;;;;;;;22.10;16.45;;;;;;;27.28;47.04;101249.44;4978153;28;20329;-80
2022/07/21 05:09:10;;;;;;;20.75;16.92;;;;;;;27.30;47.22;101246.47;4988471;28;20525;-79
2022/07/21 05:11:37;;;;;;;18.70;15.98;;;;;;;27.32;46.78;101232.59;4979603;28;20046;-79
2022/07/21 05:14:04;;;;;;;18.70;15.50;;;;;;;27.47;46.87;101274.72;4986925;28;20076;-79
2022/07/21 05:16:40;;;;;;;21.50;17.05;;;;;;;27.32;46.44;101244.34;4989868;28;20069;-80
2022/07/21 05:19:07;;;;;;;22.15;16.88;;;;;;;27.35;46.61;101230.22;4976415;28;20050;-81
2022/07/21 05:21:33;;;;;;;19.25;15.38;;;;;;;27.62;46.03;101273.44;4968407;28;20061;-80
2022/07/21 05:24:00;;;;;;;28.75;17.77;;;;;;;27.57;45.94;101256.97;4968795;28;20183;-80
2022/07/21 05:26:27;;;;;;;19.60;15.82;;;;;;;27.74;46.30;101263.41;4968982;28;20505;-80
2022/07/21 05:28:53;;;;;;;32.15;17.48;;;;;;;27.75;46.31;101262.34;4974604;28;20092;-81
2022/07/21 05:31:22;;;;;;;23.77;15.05;;;;;;;27.83;45.80;101264.75;4988821;28;20406;-80
2022/07/21 05:33:49;;;;;;;19.27;15.80;;;;;;;27.92;45.23;101274.25;4988370;28;20054;-80
2022/07/21 05:36:15;;;;;;;23.08;18.02;;;;;;;27.78;45.20;101239.22;4988646;28;20061;-80
2022/07/21 05:38:42;;;;;;;27.02;18.15;;;;;;;28.07;45.59;101271.06;4988095;28;20150;-80
2022/07/21 05:41:09;;;;;;;29.67;16.67;;;;;;;27.42;45.96;101148.34;4969080;28;20081;-80
2022/07/21 05:43:36;;;;;;;23.83;17.35;;;;;;;27.71;46.69;101182.03;4986065;28;20051;-80
2022/07/21 05:46:03;;;;;;;33.30;17.60;;;;;;;28.26;46.69;101269.06;4999129;28;20050;-80
2022/07/21 05:48:29;;;;;;;33.58;19.30;;;;;;;28.42;46.88;101272.13;5006952;28;20045;-80
2022/07/21 05:50:56;;;;;;;25.05;16.63;;;;;;;28.10;46.49;101204.25;4992592;28;20058;-81
2022/07/21 05:53:23;;;;;;;31.15;18.15;;;;;;;28.39;46.79;101251.59;5020591;28;20061;-79
2022/07/21 05:55:49;;;;;;;23.23;18.55;;;;;;;28.56;46.98;101281.75;5035442;28;20136;-81
2022/07/21 05:58:18;;;;;;;25.63;15.95;;;;;;;28.58;46.49;101262.41;5022135;28;20053;-81
2022/07/21 06:01:07;;;;;;;23.90;16.35;;;;;;;28.66;46.66;101273.78;5018566;28;20077;-80
2022/07/21 06:03:32;;;;;;;34.28;17.63;;;;;;;28.49;46.58;101240.09;5023202;28;20065;-81
2022/07/21 06:05:59;;;;;;;21.65;17.15;;;;;;;28.49;46.28;101264.66;4987658;28;20058;-80
2022/07/21 06:08:25;;;;;;;23.85;16.58;;;;;;;28.64;45.90;101272.34;5006090;28;20061;-80
2022/07/21 06:10:52;;;;;;;27.80;17.40;;;;;;;28.36;45.48;101232.97;4976085;28;20053;-80
2022/07/21 06:13:18;;;;;;;22.42;16.27;;;;;;;28.65;45.34;101269.38;4972929;28;20062;-80
2022/07/21 06:15:45;;;;;;;21.92;15.65;;;;;;;28.79;45.47;101274.56;4970986;28;20054;-80
2022/07/21 06:18:12;;;;;;;23.85;15.10;;;;;;;28.70;44.52;101260.47;4971462;28;20046;-80
2022/07/21 06:20:39;;;;;;;25.05;17.02;;;;;;;28.68;44.69;101260.72;4989378;28;20058;-80
2022/07/21 06:23:06;;;;;;;29.08;17.67;;;;;;;28.34;44.96;101200.44;4981454;28;20061;-78
2022/07/21 06:25:33;;;;;;;28.70;14.73;;;;;;;28.93;44.93;101285.00;4991851;28;20054;-79
2022/07/21 06:28:00;;;;;;;23.48;17.20;;;;;;;28.76;44.84;101238.50;4991551;28;20135;-80
2022/07/21 06:30:26;;;;;;;25.70;15.93;;;;;;;29.08;44.43;101284.53;4991768;28;20045;-79
2022/07/21 06:32:53;;;;;;;20.70;14.73;;;;;;;29.15;43.95;101274.28;4991198;28;20506;-80
2022/07/21 06:35:20;;;;;;;23.95;15.57;;;;;;;29.04;43.72;101261.44;4980066;28;20086;-79
2022/07/21 06:37:47;;;;;;;22.58;14.00;;;;;;;29.02;42.90;101249.91;4972051;28;20105;-80
2022/07/21 06:40:14;;;;;;;32.92;14.70;;;;;;;28.62;42.66;101182.47;4984018;28;20147;-78
2022/07/21 06:42:42;;;;;;;20.98;14.27;;;;;;;29.35;42.97;101283.94;5008761;28;20085;-80
2022/07/21 06:45:28;;;;;;;18.48;13.13;;;;;;;28.75;43.11;101187.63;4995274;28;20057;-79
2022/07/21 06:48:05;;;;;;;23.13;14.73;;;;;;;29.50;42.92;101292.41;4991347;28;20352;-80
2022/07/21 06:50:33;;;;;;;23.27;14.63;;;;;;;29.40;42.95;101264.88;4987601;28;20442;-81
2022/07/21 06:53:00;;;;;;;18.73;14.20;;;;;;;29.52;42.55;101273.03;4973007;28;20056;-80
2022/07/21 06:55:27;;;;;;;18.10;13.52;;;;;;;29.24;42.80;101216.44;4905530;29;20492;-79
2022/07/21 06:57:54;;;;;;;16.20;13.10;;;;;;;29.72;41.01;101273.41;4931545;29;20051;-79
2022/07/21 07:00:21;;;;;;;24.50;13.68;;;;;;;29.96;40.81;101292.41;4929892;29;20378;-80
2022/07/21 07:02:48;;;;;;;17.10;12.20;;;;;;;29.80;40.31;101237.41;4940704;28;20054;-80
2022/07/21 07:05:16;;;;;;;20.33;12.85;;;;;;;29.89;40.32;101248.75;4964251;28;20444;-82
2022/07/21 07:07:43;;;;;;;18.95;12.27;;;;;;;30.00;40.15;101247.00;4950128;28;20063;-80
2022/07/21 07:10:11;;;;;;;20.67;13.10;;;;;;;29.85;40.07;101228.44;4948764;28;20090;-81
2022/07/21 07:12:38;;;;;;;25.73;14.18;;;;;;;30.08;40.04;101252.06;4950662;28;20067;-82
2022/07/21 07:15:25;;;;;;;35.03;14.90;;;;;;;29.72;39.06;101190.50;4949178;28;20058;-81
2022/07/21 07:17:55;;;;;;;22.90;14.60;;;;;;;30.48;38.55;101278.41;4962889;28;20057;-82
2022/07/21 07:20:22;;;;;;;16.77;12.73;;;;;;;30.28;38.35;101243.34;4930281;29;20312;-80
2022/07/21 07:22:49;;;;;;;21.88;12.93;;;;;;;30.63;37.64;101278.63;4954455;28;20057;-81
2022/07/21 07:25:19;;;;;;;16.98;12.48;;;;;;;30.32;37.62;101236.28;4947031;28;20508;-80
2022/07/21 07:27:56;;;;;;;22.02;14.40;;;;;;;30.70;37.70;101289.38;4929456;29;20551;-82
2022/07/21 07:30:23;;;;;;;16.80;11.98;;;;;;;30.08;37.63;101200.06;4947248;29;20117;-81
2022/07/21 07:32:50;;;;;;;25.55;14.77;;;;;;;30.36;37.98;101242.09;4948137;28;20062;-82
2022/07/21 07:35:17;;;;;;;15.77;12.52;;;;;;;30.60;37.79;101261.84;4948138;29;20277;-80
2022/07/21 07:37:45;;;;;;;16.30;13.65;;;;;;;30.77;37.84;101284.53;4964121;28;20531;-80
2022/07/21 07:40:16;;;;;;;18.35;14.30;;;;;;;30.80;37.90;101273.09;4955211;28;20520;-80
2022/07/21 07:42:43;;;;;;;;;;;;;;;30.85;37.13;101284.16;4964619;28;20055;-80
2022/07/21 07:45:10;;;;;;;19.15;14.18;;;;;;;30.90;37.32;101271.56;4949534;28;19926;-80
2022/07/21 07:47:38;;;;;;;18.27;13.02;;;;;;;30.87;37.53;101276.47;4963688;28;20055;-80
2022/07/21 07:50:08;;;;;;;17.63;14.18;;;;;;;30.72;37.84;101246.09;4946435;29;20067;-81
2022/07/21 07:52:36;;;;;;;16.67;13.07;;;;;;;31.12;37.34;101286.09;4930378;28;20108;-80
2022/07/21 07:55:07;;;;;;;18.13;12.38;;;;;;;31.13;37.05;101275.94;4967632;28;20268;-81
2022/07/21 07:57:34;;;;;;;;;;;;;;;31.16;37.30;101283.66;4969067;28;20043;-78
2022/07/21 08:00:05;;;;;;;17.65;12.07;;;;;;;30.44;37.04;101154.84;4960219;28;19927;-81
2022/07/21 08:02:52;;;;;;;18.02;13.63;;;;;;;31.29;36.83;101280.53;4929485;29;20655;-80
2022/07/21 08:05:19;;;;;;;14.82;12.98;;;;;;;31.14;37.33;101251.00;4944792;28;20070;-80
2022/07/21 08:07:45;;;;;;;21.40;13.63;;;;;;;30.91;37.54;101212.94;4945311;28;20055;-80
2022/07/21 08:10:13;;;;;;;17.20;12.93;;;;;;;31.09;37.17;101234.50;4930588;29;20080;-81
2022/07/21 08:13:00;;;;;;;19.58;14.65;;;;;;;31.39;37.08;101272.41;4942993;28;20139;-83
2022/07/21 08:15:32;;;;;;;14.73;12.48;;;;;;;30.87;37.22;101196.16;4931111;29;20056;-81
2022/07/21 08:17:59;;;;;;;16.13;13.52;;;;;;;31.16;37.07;101237.84;4928843;29;20066;-81
2022/07/21 08:20:26;;;;;;;14.55;13.02;;;;;;;31.56;36.94;101275.03;4944425;28;20048;-80
2022/07/21 08:22:53;;;;;;;17.80;12.95;;;;;;;31.58;36.86;101278.38;4944139;28;20063;-80
2022/07/21 08:25:20;;;;;;;23.95;12.30;;;;;;;31.70;36.90;101280.91;4944799;28;20127;-83
2022/07/21 08:27:49;;;;;;;20.73;11.52;;;;;;;31.26;35.80;101201.47;4928765;29;20195;-79
2022/07/21 08:30:15;;;;;;;16.85;10.43;;;;;;;31.78;35.27;101257.66;4944866;29;20047;-80
2022/07/21 08:32:42;;;;;;;15.68;11.18;;;;;;;31.41;35.16;101189.84;4962516;28;20522;-79
2022/07/21 08:35:10;;;;;;;17.33;10.93;;;;;;;30.80;35.69;101083.97;4962796;28;20059;-81
2022/07/21 08:37:40;;;;;;;12.50;10.23;;;;;;;31.99;34.33;101244.94;4963583;28;20058;-80
2022/07/21 08:40:09;;;;;;;11.57;9.73;;;;;;;32.25;33.92;101268.72;4955037;28;20479;-80
2022/07/21 08:42:37;;;;;;;14.93;10.20;;;;;;;31.62;34.36;101164.22;4947161;29;20378;-81
2022/07/21 08:45:05;;;;;;;12.05;8.38;;;;;;;32.25;34.17;101276.13;4963059;28;20062;-81
2022/07/21 08:47:31;;;;;;;11.80;8.88;;;;;;;32.35;33.99;101267.94;4963840;28;20063;-82
2022/07/21 08:49:59;;;;;;;12.25;9.05;;;;;;;32.49;33.30;101277.41;4962737;28;20126;-82
2022/07/21 08:52:25;;;;;;;16.15;8.35;;;;;;;32.42;33.03;101265.78;4962757;28;20499;-81
2022/07/21 08:54:52;;;;;;;11.02;8.23;;;;;;;32.66;31.81;101276.38;4962931;28;20059;-80
2022/07/21 08:57:19;;;;;;;11.43;8.32;;;;;;;32.69;32.18;101281.34;4948081;29;20051;-81
2022/07/21 08:59:46;;;;;;;10.23;7.90;;;;;;;32.11;31.68;101180.50;4962587;28;20055;-82
2022/07/21 09:02:32;;;;;;;10.27;7.70;;;;;;;32.73;31.26;101266.78;4962294;28;20047;-80
2022/07/21 09:04:59;;;;;;;8.65;7.72;;;;;;;32.73;31.21;101241.22;4946910;29;20051;-81
2022/07/21 09:07:26;;;;;;;9.50;7.13;;;;;;;32.89;31.04;101275.94;4962311;28;20051;-80
2022/07/21 09:10:02;;;;;;;11.20;7.30;;;;;;;33.02;30.38;101277.34;4948421;28;20057;-81
2022/07/21 09:12:29;;;;;;;11.32;6.43;;;;;;;33.00;30.24;101254.78;4947024;29;20538;-80
2022/07/21 09:15:18;;;;;;;9.75;6.93;;;;;;;32.13;31.00;101120.59;4963477;28;20075;-80
2022/07/21 09:17:45;;;;;;;6.47;5.57;;;;;;;33.14;31.56;101269.72;4947492;29;20395;-80
2022/07/21 09:20:33;;;;;;;11.93;6.47;;;;;;;33.32;31.75;101268.34;4959922;28;20051;-81
2022/07/21 09:23:12;;;;;;;7.22;5.22;;;;;;;33.55;30.96;101266.19;4946610;29;20105;-81
2022/07/21 09:25:59;;;;;;;13.77;5.55;;;;;;;32.77;30.13;101119.47;4962739;28;20487;-80
2022/07/21 09:28:29;;;;;;;11.35;6.13;;;;;;;33.81;29.42;101272.53;4946662;29;20503;-82
2022/07/21 09:31:04;;;;;;;10.23;4.90;;;;;;;33.73;29.75;101264.84;4951636;28;20056;-82
2022/07/21 09:33:31;;;;;;;10.00;5.25;;;;;;;33.69;30.19;101264.53;4935460;29;20447;-82
2022/07/21 09:36:08;;;;;;;8.52;5.35;;;;;;;34.03;29.02;101266.72;4943682;28;20059;-81
2022/07/21 09:38:37;;;;;;;10.45;5.63;;;;;;;34.08;28.71;101252.13;4943211;28;20052;-80
2022/07/21 09:41:08;;;;;;;6.07;5.00;;;;;;;34.15;28.75;101259.00;4928708;29;20051;-80
2022/07/21 09:43:51;;;;;;;8.70;5.43;;;;;;;34.19;28.75;101254.59;4943164;28;20086;-81
2022/07/21 09:46:30;;;;;;;7.65;5.00;;;;;;;33.91;28.35;101198.19;4945654;28;20517;-79
2022/07/21 09:49:01;;;;;;;6.63;4.55;;;;;;;34.40;28.07;101249.06;4932883;29;20074;-80
2022/07/21 09:51:48;;;;;;;17.42;5.43;;;;;;;34.58;27.38;101251.16;4931166;29;20079;-80
2022/07/21 09:54:15;;;;;;;5.97;4.45;;;;;;;33.55;28.04;101065.28;4959438;28;20061;-81
2022/07/21 09:56:44;;;;;;;6.32;5.00;;;;;;;34.28;28.71;101157.63;4990183;28;20054;-80
2022/07/21 09:59:14;;;;;;;4.93;4.38;;;;;;;34.24;28.05;101141.63;4973184;28;20416;-81
2022/07/21 10:01:41;;;;;;;6.20;5.15;;;;;;;34.74;27.89;101215.31;4983629;28;20051;-82
2022/07/21 10:04:08;;;;;;;14.55;5.35;;;;;;;35.17;27.85;101262.50;4928724;29;20063;-82
2022/07/21 10:06:38;;;;;;;8.93;4.68;;;;;;;34.51;28.28;101121.09;4945980;29;20051;-80
2022/07/21 10:09:08;;;;;;;5.72;4.28;;;;;;;34.96;28.55;101190.91;4947010;29;20479;-80
2022/07/21 10:11:41;;;;;;;14.57;5.57;;;;;;;35.51;28.02;101246.81;4932756;29;20051;-82
2022/07/21 10:14:12;;;;;;;12.63;5.05;;;;;;;35.57;27.51;101205.34;4951202;28;20508;-79
2022/07/21 10:16:40;;;;;;;10.82;4.25;;;;;;;35.29;27.11;101180.19;4965923;28;20077;-82
2022/07/21 10:19:25;;;;;;;10.18;4.57;;;;;;;35.71;26.91;101233.97;4964505;28;20051;-82
2022/07/21 10:22:01;;;;;;;9.88;4.38;;;;;;;35.99;27.12;101239.78;4966217;28;20299;-81
2022/07/21 10:24:30;;;;;;;6.55;5.90;;;;;;;36.07;26.31;101209.56;4965518;28;20358;-80
2022/07/21 10:27:04;;;;;;;6.70;4.15;;;;;;;35.63;25.49;101148.97;4954961;28;20047;-80
2022/07/21 10:29:53;;;;;;;8.18;4.32;;;;;;;36.24;25.59;101231.25;4952266;28;20043;-81
2022/07/21 10:32:33;;;;;;;7.13;4.40;;;;;;;36.38;25.48;101232.16;4968854;29;20115;-82
2022/07/21 10:35:21;;;;;;;7.75;3.85;;;;;;;36.29;25.62;101228.41;4965693;28;20111;-81
2022/07/21 10:37:49;;;;;;;7.57;5.35;;;;;;;35.49;25.92;101088.91;4949661;29;20052;-82
2022/07/21 10:40:19;;;;;;;6.47;4.45;;;;;;;36.75;25.74;101229.78;4953171;29;20095;-81
2022/07/21 10:43:06;;;;;;;11.05;5.43;;;;;;;36.87;25.19;101223.81;4963847;28;20040;-80
2022/07/21 10:45:34;;;;;;;7.15;3.95;;;;;;;36.95;25.26;101217.63;4957336;28;20051;-80
2022/07/21 10:48:03;;;;;;;8.93;4.68;;;;;;;37.19;24.43;101226.69;4934642;29;20496;-82
2022/07/21 10:50:39;;;;;;;10.05;4.68;;;;;;;37.25;24.34;101221.06;4930293;29;20051;-82
2022/07/21 10:53:14;;;;;;;9.20;4.60;;;;;;;36.96;24.40;101161.16;4940509;28;20077;-81
2022/07/21 10:55:52;;;;;;;6.75;4.30;;;;;;;37.26;24.33;101204.13;4967754;28;20486;-82
2022/07/21 10:58:29;;;;;;;11.45;3.90;;;;;;;37.39;24.01;101217.22;4969990;28;20050;-81
2022/07/21 11:01:01;;;;;;;7.90;4.25;;;;;;;37.57;23.51;101211.97;4972253;28;20729;-82
2022/07/21 11:03:38;;;;;;;4.45;4.05;;;;;;;37.84;23.69;101205.63;4949075;29;20731;-82
2022/07/21 11:06:05;;;;;;;8.50;4.32;;;;;;;37.42;23.71;101118.88;4949102;28;20059;-82
2022/07/21 11:08:37;;;;;;;11.93;4.68;;;;;;;37.56;23.83;101166.84;4965078;28;20066;-81
2022/07/21 11:11:25;;;;;;;6.60;3.88;;;;;;;37.70;23.40;101150.25;4965434;28;20055;-82
2022/07/21 11:14:12;;;;;;;6.28;3.50;;;;;;;37.79;22.97;101142.03;4949196;29;20118;-82
2022/07/21 11:16:41;;;;;;;10.57;4.05;;;;;;;38.56;22.89;101205.06;4949016;28;20059;-83
2022/07/21 11:19:28;;;;;;;9.13;3.58;;;;;;;38.52;21.94;101200.44;4949613;28;20106;-82
2022/07/21 11:21:58;;;;;;;6.85;4.30;;;;;;;38.20;22.08;101116.25;4948663;28;20447;-81
2022/07/21 11:24:26;;;;;;;5.45;3.70;;;;;;;38.40;21.40;101124.16;4959055;28;20051;-83